Terminal Aerodrome Forecast
Issued by NWS

Home | Current Version | Previous Version | Text Only | Print | Product List | Glossary Off
Versions: 1 2 3 4 5 6 7 8 9 10 11 12 13 14 15 16 17 18 19 20 21

000
FTUS43 KGRB 211100
TAFAUW
TAF
KAUW 211138Z 2112/2212 18004KT P6SM SCT120
     FM211600 19008KT P6SM SCT090 SCT120
     FM212100 17012KT P6SM SCT070 SCT120 WS015/21030KT
     FM220200 19010KT P6SM BKN015 WS015/22045KT
     FM220700 21010KT P6SM OVC012 WS015/22045KT PROB30 2208/2212 5SM
      -FZDZ BR=

USA.gov is the U.S. government's official web portal to all federal, state and local government web resources and services.